sensor_id;sensor_type;location;lat;lon;timestamp;temperature;humidity
32749;DHT22;19119;52.474;13.710;2022-09-27T00:01:00;12.10;99.90
32749;DHT22;19119;52.474;13.710;2022-09-27T00:03:27;12.20;99.90
32749;DHT22;19119;52.474;13.710;2022-09-27T00:08:34;12.10;99.90
32749;DHT22;19119;52.474;13.710;2022-09-27T00:11:04;12.10;99.90
32749;DHT22;19119;52.474;13.710;2022-09-27T00:13:29;12.10;99.90
32749;DHT22;19119;52.474;13.710;2022-09-27T00:16:00;12.10;99.90
32749;DHT22;19119;52.474;13.710;2022-09-27T00:18:26;12.10;99.90
32749;DHT22;19119;52.474;13.710;2022-09-27T00:20:52;12.00;99.90
32749;DHT22;19119;52.474;13.710;2022-09-27T00:23:18;12.10;99.90
32749;DHT22;19119;52.474;13.710;2022-09-27T00:25:57;12.10;99.90
32749;DHT22;19119;52.474;13.710;2022-09-27T00:28:23;12.10;99.90
32749;DHT22;19119;52.474;13.710;2022-09-27T00:30:49;12.10;99.90
32749;DHT22;19119;52.474;13.710;2022-09-27T00:33:14;12.00;99.90
32749;DHT22;19119;52.474;13.710;2022-09-27T00:35:40;12.00;99.90
32749;DHT22;19119;52.474;13.710;2022-09-27T00:38:05;12.00;99.90
32749;DHT22;19119;52.474;13.710;2022-09-27T00:40:31;12.00;99.90
32749;DHT22;19119;52.474;13.710;2022-09-27T00:42:57;12.00;99.90
32749;DHT22;19119;52.474;13.710;2022-09-27T00:45:22;12.00;99.90
32749;DHT22;19119;52.474;13.710;2022-09-27T00:47:58;12.00;99.90
32749;DHT22;19119;52.474;13.710;2022-09-27T00:50:36;12.00;99.90
32749;DHT22;19119;52.474;13.710;2022-09-27T00:53:14;12.00;99.90
32749;DHT22;19119;52.474;13.710;2022-09-27T00:55:53;12.00;99.90
32749;DHT22;19119;52.474;13.710;2022-09-27T00:58:23;12.00;99.90
32749;DHT22;19119;52.474;13.710;2022-09-27T01:00:54;12.00;99.90
32749;DHT22;19119;52.474;13.710;2022-09-27T01:03:51;12.00;99.90
32749;DHT22;19119;52.474;13.710;2022-09-27T01:06:19;12.00;99.90
32749;DHT22;19119;52.474;13.710;2022-09-27T01:08:45;12.00;99.90
32749;DHT22;19119;52.474;13.710;2022-09-27T01:11:38;12.00;99.90
32749;DHT22;19119;52.474;13.710;2022-09-27T01:17:12;12.00;99.90
32749;DHT22;19119;52.474;13.710;2022-09-27T01:28:20;12.00;99.90
32749;DHT22;19119;52.474;13.710;2022-09-27T01:30:52;12.00;99.90
32749;DHT22;19119;52.474;13.710;2022-09-27T01:33:31;12.10;99.90
32749;DHT22;19119;52.474;13.710;2022-09-27T01:36:16;12.10;99.90
32749;DHT22;19119;52.474;13.710;2022-09-27T01:44:31;12.10;99.90
32749;DHT22;19119;52.474;13.710;2022-09-27T01:47:02;12.10;99.90
32749;DHT22;19119;52.474;13.710;2022-09-27T01:49:50;12.10;99.90
32749;DHT22;19119;52.474;13.710;2022-09-27T01:52:20;12.10;99.90
32749;DHT22;19119;52.474;13.710;2022-09-27T01:54:51;12.10;99.90
32749;DHT22;19119;52.474;13.710;2022-09-27T01:57:24;12.10;99.90
32749;DHT22;19119;52.474;13.710;2022-09-27T01:59:56;12.20;99.90
32749;DHT22;19119;52.474;13.710;2022-09-27T02:02:25;12.20;99.90
32749;DHT22;19119;52.474;13.710;2022-09-27T02:04:56;12.20;99.90
32749;DHT22;19119;52.474;13.710;2022-09-27T02:07:26;12.20;99.90
32749;DHT22;19119;52.474;13.710;2022-09-27T02:10:00;12.20;99.90
32749;DHT22;19119;52.474;13.710;2022-09-27T02:12:32;12.20;99.90
32749;DHT22;19119;52.474;13.710;2022-09-27T02:15:07;12.20;99.90
32749;DHT22;19119;52.474;13.710;2022-09-27T02:20:37;12.30;99.90
32749;DHT22;19119;52.474;13.710;2022-09-27T02:23:25;12.30;99.90
32749;DHT22;19119;52.474;13.710;2022-09-27T02:26:02;12.40;99.90
32749;DHT22;19119;52.474;13.710;2022-09-27T02:28:33;12.40;99.90
32749;DHT22;19119;52.474;13.710;2022-09-27T02:31:00;12.40;99.90
32749;DHT22;19119;52.474;13.710;2022-09-27T02:33:35;12.40;99.90
32749;DHT22;19119;52.474;13.710;2022-09-27T02:36:01;12.40;99.90
32749;DHT22;19119;52.474;13.710;2022-09-27T02:38:27;12.40;99.90
32749;DHT22;19119;52.474;13.710;2022-09-27T02:40:53;12.40;99.90
32749;DHT22;19119;52.474;13.710;2022-09-27T02:43:20;12.40;99.90
32749;DHT22;19119;52.474;13.710;2022-09-27T02:51:17;12.40;99.90
32749;DHT22;19119;52.474;13.710;2022-09-27T02:56:57;12.40;99.90
32749;DHT22;19119;52.474;13.710;2022-09-27T03:04:52;12.30;99.90
32749;DHT22;19119;52.474;13.710;2022-09-27T03:07:20;12.30;99.90
32749;DHT22;19119;52.474;13.710;2022-09-27T03:09:48;12.40;99.90
32749;DHT22;19119;52.474;13.710;2022-09-27T03:12:16;12.30;99.90
32749;DHT22;19119;52.474;13.710;2022-09-27T03:14:54;12.30;99.90
32749;DHT22;19119;52.474;13.710;2022-09-27T03:17:20;12.30;99.90
32749;DHT22;19119;52.474;13.710;2022-09-27T03:19:47;12.30;99.90
32749;DHT22;19119;52.474;13.710;2022-09-27T03:22:12;12.30;99.90
32749;DHT22;19119;52.474;13.710;2022-09-27T03:24:38;12.30;99.90
32749;DHT22;19119;52.474;13.710;2022-09-27T03:27:04;12.30;99.90
32749;DHT22;19119;52.474;13.710;2022-09-27T03:29:30;12.30;99.90
32749;DHT22;19119;52.474;13.710;2022-09-27T03:31:56;12.30;99.90
32749;DHT22;19119;52.474;13.710;2022-09-27T03:34:25;12.30;99.90
32749;DHT22;19119;52.474;13.710;2022-09-27T03:36:50;12.30;99.90
32749;DHT22;19119;52.474;13.710;2022-09-27T03:39:16;12.30;99.90
32749;DHT22;19119;52.474;13.710;2022-09-27T03:41:41;12.30;99.90
32749;DHT22;19119;52.474;13.710;2022-09-27T03:44:07;12.40;99.90
32749;DHT22;19119;52.474;13.710;2022-09-27T03:46:33;12.40;99.90
32749;DHT22;19119;52.474;13.710;2022-09-27T03:48:58;12.40;99.90
32749;DHT22;19119;52.474;13.710;2022-09-27T03:51:24;12.40;99.90
32749;DHT22;19119;52.474;13.710;2022-09-27T03:53:50;12.30;99.90
32749;DHT22;19119;52.474;13.710;2022-09-27T03:56:16;12.20;99.90
32749;DHT22;19119;52.474;13.710;2022-09-27T03:58:41;12.30;99.90
32749;DHT22;19119;52.474;13.710;2022-09-27T04:01:07;12.20;99.90
32749;DHT22;19119;52.474;13.710;2022-09-27T04:03:33;12.00;99.90
32749;DHT22;19119;52.474;13.710;2022-09-27T04:06:01;12.10;99.90
32749;DHT22;19119;52.474;13.710;2022-09-27T04:08:26;12.10;99.90
32749;DHT22;19119;52.474;13.710;2022-09-27T04:10:52;12.10;99.90
32749;DHT22;19119;52.474;13.710;2022-09-27T04:13:17;12.10;99.90
32749;DHT22;19119;52.474;13.710;2022-09-27T04:15:43;12.10;99.90
32749;DHT22;19119;52.474;13.710;2022-09-27T04:18:08;12.10;99.90
32749;DHT22;19119;52.474;13.710;2022-09-27T04:20:34;12.10;99.90
32749;DHT22;19119;52.474;13.710;2022-09-27T04:23:00;12.10;99.90
32749;DHT22;19119;52.474;13.710;2022-09-27T04:25:26;12.10;99.90
32749;DHT22;19119;52.474;13.710;2022-09-27T04:27:52;12.10;99.90
32749;DHT22;19119;52.474;13.710;2022-09-27T04:30:20;12.10;99.90
32749;DHT22;19119;52.474;13.710;2022-09-27T04:32:46;12.10;99.90
32749;DHT22;19119;52.474;13.710;2022-09-27T04:35:13;12.00;99.90
32749;DHT22;19119;52.474;13.710;2022-09-27T04:37:58;12.00;99.90
32749;DHT22;19119;52.474;13.710;2022-09-27T04:40:24;12.00;99.90
32749;DHT22;19119;52.474;13.710;2022-09-27T04:42:50;12.00;99.90
32749;DHT22;19119;52.474;13.710;2022-09-27T04:45:17;12.00;99.90
32749;DHT22;19119;52.474;13.710;2022-09-27T04:47:44;12.00;99.90
32749;DHT22;19119;52.474;13.710;2022-09-27T04:50:10;12.00;99.90
32749;DHT22;19119;52.474;13.710;2022-09-27T04:52:36;12.00;99.90
32749;DHT22;19119;52.474;13.710;2022-09-27T04:55:02;12.00;99.90
32749;DHT22;19119;52.474;13.710;2022-09-27T04:57:28;12.00;99.90
32749;DHT22;19119;52.474;13.710;2022-09-27T04:59:53;12.00;99.90
32749;DHT22;19119;52.474;13.710;2022-09-27T05:02:19;12.00;99.90
32749;DHT22;19119;52.474;13.710;2022-09-27T05:04:44;12.00;99.90
32749;DHT22;19119;52.474;13.710;2022-09-27T05:07:10;11.90;99.90
32749;DHT22;19119;52.474;13.710;2022-09-27T05:09:35;11.90;99.90
32749;DHT22;19119;52.474;13.710;2022-09-27T05:12:01;12.00;99.90
32749;DHT22;19119;52.474;13.710;2022-09-27T05:14:27;11.90;99.90
32749;DHT22;19119;52.474;13.710;2022-09-27T05:16:53;12.00;99.90
32749;DHT22;19119;52.474;13.710;2022-09-27T05:19:19;12.00;99.90
32749;DHT22;19119;52.474;13.710;2022-09-27T05:21:45;12.00;99.90
32749;DHT22;19119;52.474;13.710;2022-09-27T05:24:10;12.00;99.90
32749;DHT22;19119;52.474;13.710;2022-09-27T05:26:36;12.00;99.90
32749;DHT22;19119;52.474;13.710;2022-09-27T05:29:02;12.00;99.90
32749;DHT22;19119;52.474;13.710;2022-09-27T05:31:28;12.00;99.90
32749;DHT22;19119;52.474;13.710;2022-09-27T05:33:54;12.10;99.90
32749;DHT22;19119;52.474;13.710;2022-09-27T05:36:20;11.90;99.90
32749;DHT22;19119;52.474;13.710;2022-09-27T05:38:45;12.00;99.90
32749;DHT22;19119;52.474;13.710;2022-09-27T05:41:11;12.00;99.90
32749;DHT22;19119;52.474;13.710;2022-09-27T05:43:37;12.00;99.90
32749;DHT22;19119;52.474;13.710;2022-09-27T05:46:03;12.00;99.90
32749;DHT22;19119;52.474;13.710;2022-09-27T05:48:30;11.90;99.90
32749;DHT22;19119;52.474;13.710;2022-09-27T05:50:55;11.90;99.90
32749;DHT22;19119;52.474;13.710;2022-09-27T05:53:21;12.00;99.90
32749;DHT22;19119;52.474;13.710;2022-09-27T05:55:47;12.00;99.90
32749;DHT22;19119;52.474;13.710;2022-09-27T05:58:13;11.90;99.90
32749;DHT22;19119;52.474;13.710;2022-09-27T06:00:40;12.00;99.90
32749;DHT22;19119;52.474;13.710;2022-09-27T06:03:07;12.00;99.90
32749;DHT22;19119;52.474;13.710;2022-09-27T06:05:37;12.00;99.90
32749;DHT22;19119;52.474;13.710;2022-09-27T06:08:08;12.00;99.90
32749;DHT22;19119;52.474;13.710;2022-09-27T06:10:35;12.10;99.90
32749;DHT22;19119;52.474;13.710;2022-09-27T06:13:02;12.10;99.90
32749;DHT22;19119;52.474;13.710;2022-09-27T06:15:30;12.10;99.90
32749;DHT22;19119;52.474;13.710;2022-09-27T06:17:56;12.10;99.90
32749;DHT22;19119;52.474;13.710;2022-09-27T06:20:23;12.10;99.90
32749;DHT22;19119;52.474;13.710;2022-09-27T06:22:48;12.10;99.90
32749;DHT22;19119;52.474;13.710;2022-09-27T06:25:14;12.10;99.90
32749;DHT22;19119;52.474;13.710;2022-09-27T06:27:39;12.10;99.90
32749;DHT22;19119;52.474;13.710;2022-09-27T06:30:05;12.00;99.90
32749;DHT22;19119;52.474;13.710;2022-09-27T06:32:31;12.00;99.90
32749;DHT22;19119;52.474;13.710;2022-09-27T06:34:57;12.10;99.90
32749;DHT22;19119;52.474;13.710;2022-09-27T06:37:26;12.00;99.90
32749;DHT22;19119;52.474;13.710;2022-09-27T06:39:52;12.00;99.90
32749;DHT22;19119;52.474;13.710;2022-09-27T06:42:18;12.00;99.90
32749;DHT22;19119;52.474;13.710;2022-09-27T06:44:44;12.00;99.90
32749;DHT22;19119;52.474;13.710;2022-09-27T06:47:15;12.10;99.90
32749;DHT22;19119;52.474;13.710;2022-09-27T06:49:41;12.10;99.90
32749;DHT22;19119;52.474;13.710;2022-09-27T06:52:07;12.10;99.90
32749;DHT22;19119;52.474;13.710;2022-09-27T06:54:32;12.20;99.90
32749;DHT22;19119;52.474;13.710;2022-09-27T06:56:58;12.10;99.90
32749;DHT22;19119;52.474;13.710;2022-09-27T06:59:23;12.10;99.90
32749;DHT22;19119;52.474;13.710;2022-09-27T07:02:07;12.00;99.90
32749;DHT22;19119;52.474;13.710;2022-09-27T07:04:33;12.00;99.90
32749;DHT22;19119;52.474;13.710;2022-09-27T07:06:58;12.10;99.90
32749;DHT22;19119;52.474;13.710;2022-09-27T07:09:24;11.90;99.90
32749;DHT22;19119;52.474;13.710;2022-09-27T07:11:49;11.90;99.90
32749;DHT22;19119;52.474;13.710;2022-09-27T07:14:15;12.00;99.90
32749;DHT22;19119;52.474;13.710;2022-09-27T07:16:41;11.90;99.90
32749;DHT22;19119;52.474;13.710;2022-09-27T07:19:08;11.90;99.90
32749;DHT22;19119;52.474;13.710;2022-09-27T07:21:36;12.00;99.90
32749;DHT22;19119;52.474;13.710;2022-09-27T07:24:01;12.00;99.90
32749;DHT22;19119;52.474;13.710;2022-09-27T07:26:27;12.00;99.90
32749;DHT22;19119;52.474;13.710;2022-09-27T07:28:53;12.10;99.90
32749;DHT22;19119;52.474;13.710;2022-09-27T07:31:19;12.10;99.90
32749;DHT22;19119;52.474;13.710;2022-09-27T07:33:44;12.10;99.90
32749;DHT22;19119;52.474;13.710;2022-09-27T07:36:10;12.10;99.90
32749;DHT22;19119;52.474;13.710;2022-09-27T07:38:36;12.30;99.90
32749;DHT22;19119;52.474;13.710;2022-09-27T07:41:10;12.30;99.90
32749;DHT22;19119;52.474;13.710;2022-09-27T07:43:36;12.40;99.90
32749;DHT22;19119;52.474;13.710;2022-09-27T07:46:02;12.40;99.90
32749;DHT22;19119;52.474;13.710;2022-09-27T07:48:27;12.30;99.90
32749;DHT22;19119;52.474;13.710;2022-09-27T07:50:53;12.40;99.90
32749;DHT22;19119;52.474;13.710;2022-09-27T07:53:18;12.50;99.90
32749;DHT22;19119;52.474;13.710;2022-09-27T07:55:51;12.60;99.90
32749;DHT22;19119;52.474;13.710;2022-09-27T07:58:18;12.60;99.90
32749;DHT22;19119;52.474;13.710;2022-09-27T08:00:44;12.60;99.90
32749;DHT22;19119;52.474;13.710;2022-09-27T08:03:12;12.60;99.90
32749;DHT22;19119;52.474;13.710;2022-09-27T08:05:40;12.40;99.90
32749;DHT22;19119;52.474;13.710;2022-09-27T08:08:07;12.50;99.90
32749;DHT22;19119;52.474;13.710;2022-09-27T08:10:33;12.50;99.90
32749;DHT22;19119;52.474;13.710;2022-09-27T08:13:03;12.60;99.90
32749;DHT22;19119;52.474;13.710;2022-09-27T08:15:33;12.50;99.90
32749;DHT22;19119;52.474;13.710;2022-09-27T08:18:04;12.50;99.90
32749;DHT22;19119;52.474;13.710;2022-09-27T08:20:30;12.60;99.90
32749;DHT22;19119;52.474;13.710;2022-09-27T08:22:55;12.50;99.90
32749;DHT22;19119;52.474;13.710;2022-09-27T08:25:21;12.50;99.90
32749;DHT22;19119;52.474;13.710;2022-09-27T08:27:59;12.60;99.90
32749;DHT22;19119;52.474;13.710;2022-09-27T08:30:25;12.60;99.90
32749;DHT22;19119;52.474;13.710;2022-09-27T08:32:55;12.50;99.90
32749;DHT22;19119;52.474;13.710;2022-09-27T08:35:22;12.50;99.90
32749;DHT22;19119;52.474;13.710;2022-09-27T08:37:55;12.50;99.90
32749;DHT22;19119;52.474;13.710;2022-09-27T08:40:22;12.60;99.90
32749;DHT22;19119;52.474;13.710;2022-09-27T08:43:24;12.60;99.90
32749;DHT22;19119;52.474;13.710;2022-09-27T08:46:20;12.60;99.90
32749;DHT22;19119;52.474;13.710;2022-09-27T08:48:43;12.50;99.90
32749;DHT22;19119;52.474;13.710;2022-09-27T08:51:12;12.40;99.90
32749;DHT22;19119;52.474;13.710;2022-09-27T08:54:06;12.40;99.90
32749;DHT22;19119;52.474;13.710;2022-09-27T08:56:33;12.70;99.90
32749;DHT22;19119;52.474;13.710;2022-09-27T08:59:16;12.70;99.90
32749;DHT22;19119;52.474;13.710;2022-09-27T09:01:50;12.80;99.90
32749;DHT22;19119;52.474;13.710;2022-09-27T09:05:14;12.80;99.90
32749;DHT22;19119;52.474;13.710;2022-09-27T09:10:40;12.70;99.90
32749;DHT22;19119;52.474;13.710;2022-09-27T09:16:28;12.70;99.90
32749;DHT22;19119;52.474;13.710;2022-09-27T09:19:22;12.80;99.90
32749;DHT22;19119;52.474;13.710;2022-09-27T09:27:32;12.70;99.90
32749;DHT22;19119;52.474;13.710;2022-09-27T09:30:17;12.70;99.90
32749;DHT22;19119;52.474;13.710;2022-09-27T09:32:56;12.80;99.90
32749;DHT22;19119;52.474;13.710;2022-09-27T09:35:40;12.80;99.90
32749;DHT22;19119;52.474;13.710;2022-09-27T09:38:33;12.80;99.90
32749;DHT22;19119;52.474;13.710;2022-09-27T09:41:25;12.80;99.90
32749;DHT22;19119;52.474;13.710;2022-09-27T09:44:03;12.90;99.90
32749;DHT22;19119;52.474;13.710;2022-09-27T09:46:44;13.00;99.90
32749;DHT22;19119;52.474;13.710;2022-09-27T09:49:19;13.10;99.90
32749;DHT22;19119;52.474;13.710;2022-09-27T09:51:52;13.20;99.90
32749;DHT22;19119;52.474;13.710;2022-09-27T09:54:35;13.20;99.90
32749;DHT22;19119;52.474;13.710;2022-09-27T09:57:19;13.30;99.90
32749;DHT22;19119;52.474;13.710;2022-09-27T09:59:48;13.30;99.90
32749;DHT22;19119;52.474;13.710;2022-09-27T10:02:37;13.20;99.90
32749;DHT22;19119;52.474;13.710;2022-09-27T10:05:04;13.30;99.90
32749;DHT22;19119;52.474;13.710;2022-09-27T10:07:31;13.40;99.90
32749;DHT22;19119;52.474;13.710;2022-09-27T10:10:04;13.50;99.90
32749;DHT22;19119;52.474;13.710;2022-09-27T10:12:30;13.60;99.90
32749;DHT22;19119;52.474;13.710;2022-09-27T10:15:02;13.60;99.90
32749;DHT22;19119;52.474;13.710;2022-09-27T10:17:36;13.70;99.90
32749;DHT22;19119;52.474;13.710;2022-09-27T10:20:04;13.90;99.90
32749;DHT22;19119;52.474;13.710;2022-09-27T10:22:37;13.90;99.90
32749;DHT22;19119;52.474;13.710;2022-09-27T10:25:07;13.80;99.90
32749;DHT22;19119;52.474;13.710;2022-09-27T10:27:53;13.80;99.90
32749;DHT22;19119;52.474;13.710;2022-09-27T10:32:53;13.80;99.90
32749;DHT22;19119;52.474;13.710;2022-09-27T10:35:42;13.90;99.90
32749;DHT22;19119;52.474;13.710;2022-09-27T10:40:45;13.80;99.90
32749;DHT22;19119;52.474;13.710;2022-09-27T10:43:28;13.80;99.90
32749;DHT22;19119;52.474;13.710;2022-09-27T10:48:31;13.80;99.90
32749;DHT22;19119;52.474;13.710;2022-09-27T10:51:21;14.00;99.90
32749;DHT22;19119;52.474;13.710;2022-09-27T10:53:45;14.20;99.90
32749;DHT22;19119;52.474;13.710;2022-09-27T10:56:21;14.50;99.90
32749;DHT22;19119;52.474;13.710;2022-09-27T10:58:48;14.70;99.90
32749;DHT22;19119;52.474;13.710;2022-09-27T11:01:14;14.90;99.90
32749;DHT22;19119;52.474;13.710;2022-09-27T11:03:54;15.00;99.90
32749;DHT22;19119;52.474;13.710;2022-09-27T11:08:51;15.80;99.90
32749;DHT22;19119;52.474;13.710;2022-09-27T11:14:16;16.00;99.90
32749;DHT22;19119;52.474;13.710;2022-09-27T11:16:47;16.10;99.90
32749;DHT22;19119;52.474;13.710;2022-09-27T11:19:29;16.00;99.90
32749;DHT22;19119;52.474;13.710;2022-09-27T11:25:16;15.20;99.90
32749;DHT22;19119;52.474;13.710;2022-09-27T11:30:43;15.10;99.90
32749;DHT22;19119;52.474;13.710;2022-09-27T11:36:52;15.20;99.90
32749;DHT22;19119;52.474;13.710;2022-09-27T11:40:15;15.50;99.90
32749;DHT22;19119;52.474;13.710;2022-09-27T11:45:41;15.60;99.90
32749;DHT22;19119;52.474;13.710;2022-09-27T11:51:00;15.20;99.90
32749;DHT22;19119;52.474;13.710;2022-09-27T11:53:47;15.10;99.90
32749;DHT22;19119;52.474;13.710;2022-09-27T11:56:54;14.90;99.90
32749;DHT22;19119;52.474;13.710;2022-09-27T12:07:21;14.50;99.90
32749;DHT22;19119;52.474;13.710;2022-09-27T12:09:54;14.70;99.90
32749;DHT22;19119;52.474;13.710;2022-09-27T12:12:33;14.80;99.90
32749;DHT22;19119;52.474;13.710;2022-09-27T12:15:05;14.70;99.90
32749;DHT22;19119;52.474;13.710;2022-09-27T12:17:39;14.50;99.90
32749;DHT22;19119;52.474;13.710;2022-09-27T12:20:16;13.80;99.90
32749;DHT22;19119;52.474;13.710;2022-09-27T12:22:59;13.40;99.90
32749;DHT22;19119;52.474;13.710;2022-09-27T12:25:29;13.10;99.90
32749;DHT22;19119;52.474;13.710;2022-09-27T12:30:54;12.60;99.90
32749;DHT22;19119;52.474;13.710;2022-09-27T12:33:43;12.60;99.90
32749;DHT22;19119;52.474;13.710;2022-09-27T12:36:15;12.60;99.90
32749;DHT22;19119;52.474;13.710;2022-09-27T12:38:43;12.50;99.90
32749;DHT22;19119;52.474;13.710;2022-09-27T12:41:13;12.50;99.90
32749;DHT22;19119;52.474;13.710;2022-09-27T12:43:44;12.40;99.90
32749;DHT22;19119;52.474;13.710;2022-09-27T12:49:11;12.40;99.90
32749;DHT22;19119;52.474;13.710;2022-09-27T12:51:46;12.30;99.90
32749;DHT22;19119;52.474;13.710;2022-09-27T12:57:26;12.50;99.90
32749;DHT22;19119;52.474;13.710;2022-09-27T13:00:19;12.60;99.90
32749;DHT22;19119;52.474;13.710;2022-09-27T13:09:06;12.90;99.90
32749;DHT22;19119;52.474;13.710;2022-09-27T13:14:03;13.70;99.90
32749;DHT22;19119;52.474;13.710;2022-09-27T13:16:29;13.90;99.90
32749;DHT22;19119;52.474;13.710;2022-09-27T13:18:59;14.10;99.90
32749;DHT22;19119;52.474;13.710;2022-09-27T13:29:50;14.40;99.90
32749;DHT22;19119;52.474;13.710;2022-09-27T13:32:23;14.40;99.90
32749;DHT22;19119;52.474;13.710;2022-09-27T13:34:55;14.20;99.90
32749;DHT22;19119;52.474;13.710;2022-09-27T13:37:54;14.30;99.90
32749;DHT22;19119;52.474;13.710;2022-09-27T13:40:31;14.20;99.90
32749;DHT22;19119;52.474;13.710;2022-09-27T13:45:50;14.10;99.90
32749;DHT22;19119;52.474;13.710;2022-09-27T13:53:58;14.00;99.90
32749;DHT22;19119;52.474;13.710;2022-09-27T13:59:09;13.50;99.90
32749;DHT22;19119;52.474;13.710;2022-09-27T14:04:31;13.40;99.90
32749;DHT22;19119;52.474;13.710;2022-09-27T14:07:02;13.40;99.90
32749;DHT22;19119;52.474;13.710;2022-09-27T14:09:39;13.90;99.90
32749;DHT22;19119;52.474;13.710;2022-09-27T14:12:18;14.30;99.90
32749;DHT22;19119;52.474;13.710;2022-09-27T14:14:45;14.30;99.90
32749;DHT22;19119;52.474;13.710;2022-09-27T14:17:12;14.20;99.90
32749;DHT22;19119;52.474;13.710;2022-09-27T14:19:39;14.10;99.90
32749;DHT22;19119;52.474;13.710;2022-09-27T14:22:13;14.20;99.90
32749;DHT22;19119;52.474;13.710;2022-09-27T14:27:27;14.20;99.90
32749;DHT22;19119;52.474;13.710;2022-09-27T14:32:29;14.10;99.90
32749;DHT22;19119;52.474;13.710;2022-09-27T14:35:13;13.90;99.90
32749;DHT22;19119;52.474;13.710;2022-09-27T14:37:59;13.90;99.90
32749;DHT22;19119;52.474;13.710;2022-09-27T14:40:26;13.80;99.90
32749;DHT22;19119;52.474;13.710;2022-09-27T14:42:58;13.70;99.90
32749;DHT22;19119;52.474;13.710;2022-09-27T14:45:36;13.80;99.90
32749;DHT22;19119;52.474;13.710;2022-09-27T14:48:18;13.70;99.90
32749;DHT22;19119;52.474;13.710;2022-09-27T14:50:53;13.60;99.90
32749;DHT22;19119;52.474;13.710;2022-09-27T14:53:22;13.60;99.90
32749;DHT22;19119;52.474;13.710;2022-09-27T14:55:48;13.40;99.90
32749;DHT22;19119;52.474;13.710;2022-09-27T14:58:14;13.30;99.90
32749;DHT22;19119;52.474;13.710;2022-09-27T15:00:45;13.30;99.90
32749;DHT22;19119;52.474;13.710;2022-09-27T15:03:21;13.20;99.90
32749;DHT22;19119;52.474;13.710;2022-09-27T15:05:49;13.30;99.90
32749;DHT22;19119;52.474;13.710;2022-09-27T15:08:17;13.30;99.90
32749;DHT22;19119;52.474;13.710;2022-09-27T15:10:44;13.30;99.90
32749;DHT22;19119;52.474;13.710;2022-09-27T15:13:18;13.30;99.90
32749;DHT22;19119;52.474;13.710;2022-09-27T15:15:50;13.40;99.90
32749;DHT22;19119;52.474;13.710;2022-09-27T15:18:42;13.30;99.90
32749;DHT22;19119;52.474;13.710;2022-09-27T15:21:11;13.20;99.90
32749;DHT22;19119;52.474;13.710;2022-09-27T15:23:42;13.20;99.90
32749;DHT22;19119;52.474;13.710;2022-09-27T15:26:16;13.20;99.90
32749;DHT22;19119;52.474;13.710;2022-09-27T15:28:48;13.20;99.90
32749;DHT22;19119;52.474;13.710;2022-09-27T15:31:14;13.30;99.90
32749;DHT22;19119;52.474;13.710;2022-09-27T15:33:41;13.40;99.90
32749;DHT22;19119;52.474;13.710;2022-09-27T15:36:09;13.30;99.90
32749;DHT22;19119;52.474;13.710;2022-09-27T15:38:44;13.20;99.90
32749;DHT22;19119;52.474;13.710;2022-09-27T15:41:17;13.20;99.90
32749;DHT22;19119;52.474;13.710;2022-09-27T15:43:50;13.30;99.90
32749;DHT22;19119;52.474;13.710;2022-09-27T15:46:35;13.30;99.90
32749;DHT22;19119;52.474;13.710;2022-09-27T15:49:18;13.20;99.90
32749;DHT22;19119;52.474;13.710;2022-09-27T15:51:47;13.10;99.90
32749;DHT22;19119;52.474;13.710;2022-09-27T15:54:13;13.20;99.90
32749;DHT22;19119;52.474;13.710;2022-09-27T15:56:41;13.10;99.90
32749;DHT22;19119;52.474;13.710;2022-09-27T15:59:20;13.10;99.90
32749;DHT22;19119;52.474;13.710;2022-09-27T16:01:46;13.00;99.90
32749;DHT22;19119;52.474;13.710;2022-09-27T16:04:12;12.90;99.90
32749;DHT22;19119;52.474;13.710;2022-09-27T16:06:38;12.70;99.90
32749;DHT22;19119;52.474;13.710;2022-09-27T16:09:13;12.70;99.90
32749;DHT22;19119;52.474;13.710;2022-09-27T16:11:41;12.50;99.90
32749;DHT22;19119;52.474;13.710;2022-09-27T16:14:06;12.50;99.90
32749;DHT22;19119;52.474;13.710;2022-09-27T16:16:32;12.50;99.90
32749;DHT22;19119;52.474;13.710;2022-09-27T16:18:58;12.40;99.90
32749;DHT22;19119;52.474;13.710;2022-09-27T16:21:23;12.40;99.90
32749;DHT22;19119;52.474;13.710;2022-09-27T16:23:49;12.40;99.90
32749;DHT22;19119;52.474;13.710;2022-09-27T16:26:14;12.30;99.90
32749;DHT22;19119;52.474;13.710;2022-09-27T16:28:40;12.40;99.90
32749;DHT22;19119;52.474;13.710;2022-09-27T16:31:06;12.50;99.90
32749;DHT22;19119;52.474;13.710;2022-09-27T16:33:32;12.50;99.90
32749;DHT22;19119;52.474;13.710;2022-09-27T16:36:03;12.50;99.90
32749;DHT22;19119;52.474;13.710;2022-09-27T16:38:29;12.40;99.90
32749;DHT22;19119;52.474;13.710;2022-09-27T16:41:01;12.40;99.90
32749;DHT22;19119;52.474;13.710;2022-09-27T16:43:28;12.50;99.90
32749;DHT22;19119;52.474;13.710;2022-09-27T16:45:53;12.50;99.90
32749;DHT22;19119;52.474;13.710;2022-09-27T16:48:23;12.40;99.90
32749;DHT22;19119;52.474;13.710;2022-09-27T16:50:48;12.30;99.90
32749;DHT22;19119;52.474;13.710;2022-09-27T16:53:33;12.30;99.90
32749;DHT22;19119;52.474;13.710;2022-09-27T16:55:58;12.20;99.90
32749;DHT22;19119;52.474;13.710;2022-09-27T16:58:24;12.30;99.90
32749;DHT22;19119;52.474;13.710;2022-09-27T17:00:50;12.20;99.90
32749;DHT22;19119;52.474;13.710;2022-09-27T17:03:16;12.00;99.90
32749;DHT22;19119;52.474;13.710;2022-09-27T17:05:42;12.00;99.90
32749;DHT22;19119;52.474;13.710;2022-09-27T17:08:09;12.10;99.90
32749;DHT22;19119;52.474;13.710;2022-09-27T17:10:34;12.10;99.90
32749;DHT22;19119;52.474;13.710;2022-09-27T17:13:02;12.10;99.90
32749;DHT22;19119;52.474;13.710;2022-09-27T17:15:28;12.10;99.90
32749;DHT22;19119;52.474;13.710;2022-09-27T17:17:53;12.10;99.90
32749;DHT22;19119;52.474;13.710;2022-09-27T17:20:19;11.80;99.90
32749;DHT22;19119;52.474;13.710;2022-09-27T17:22:45;11.90;99.90
32749;DHT22;19119;52.474;13.710;2022-09-27T17:25:10;11.90;99.90
32749;DHT22;19119;52.474;13.710;2022-09-27T17:27:36;11.80;99.90
32749;DHT22;19119;52.474;13.710;2022-09-27T17:30:01;11.70;99.90
32749;DHT22;19119;52.474;13.710;2022-09-27T17:32:27;11.60;99.90
32749;DHT22;19119;52.474;13.710;2022-09-27T17:34:53;11.60;99.90
32749;DHT22;19119;52.474;13.710;2022-09-27T17:37:20;11.50;99.90
32749;DHT22;19119;52.474;13.710;2022-09-27T17:39:45;11.50;99.90
32749;DHT22;19119;52.474;13.710;2022-09-27T17:42:11;11.50;99.90
32749;DHT22;19119;52.474;13.710;2022-09-27T17:44:37;11.50;99.90
32749;DHT22;19119;52.474;13.710;2022-09-27T17:47:03;11.50;99.90